sensor_id;sensor_type;location;lat;lon;timestamp;P1;durP1;ratioP1;P2;durP2;ratioP2
68806;SDS011;55800;54.272;18.558;2023-06-22T00:00:43;13.48;;;7.38;;
68806;SDS011;55800;54.272;18.558;2023-06-22T00:03:29;11.25;;;7.53;;
68806;SDS011;55800;54.272;18.558;2023-06-22T00:05:59;11.63;;;6.95;;
68806;SDS011;55800;54.272;18.558;2023-06-22T00:08:28;12.05;;;7.22;;
68806;SDS011;55800;54.272;18.558;2023-06-22T00:10:58;11.77;;;7.30;;
68806;SDS011;55800;54.272;18.558;2023-06-22T00:13:28;15.40;;;7.85;;
68806;SDS011;55800;54.272;18.558;2023-06-22T00:15:57;12.50;;;6.57;;
68806;SDS011;55800;54.272;18.558;2023-06-22T00:18:27;13.75;;;6.72;;
68806;SDS011;55800;54.272;18.558;2023-06-22T00:20:58;12.95;;;7.28;;
68806;SDS011;55800;54.272;18.558;2023-06-22T00:23:28;12.95;;;7.18;;
68806;SDS011;55800;54.272;18.558;2023-06-22T00:26:02;10.20;;;7.35;;
68806;SDS011;55800;54.272;18.558;2023-06-22T00:28:31;15.43;;;8.82;;
68806;SDS011;55800;54.272;18.558;2023-06-22T00:31:01;11.77;;;7.45;;
68806;SDS011;55800;54.272;18.558;2023-06-22T00:33:31;12.18;;;7.85;;
68806;SDS011;55800;54.272;18.558;2023-06-22T00:36:00;13.10;;;7.75;;
68806;SDS011;55800;54.272;18.558;2023-06-22T00:38:29;11.00;;;7.75;;
68806;SDS011;55800;54.272;18.558;2023-06-22T00:40:59;14.20;;;8.38;;
68806;SDS011;55800;54.272;18.558;2023-06-22T00:43:29;10.85;;;7.47;;
68806;SDS011;55800;54.272;18.558;2023-06-22T00:46:01;11.68;;;7.18;;
68806;SDS011;55800;54.272;18.558;2023-06-22T00:48:30;11.75;;;7.38;;
68806;SDS011;55800;54.272;18.558;2023-06-22T00:51:00;12.45;;;7.63;;
68806;SDS011;55800;54.272;18.558;2023-06-22T00:53:30;13.00;;;6.82;;
68806;SDS011;55800;54.272;18.558;2023-06-22T00:56:02;12.25;;;7.32;;
68806;SDS011;55800;54.272;18.558;2023-06-22T00:58:36;11.55;;;7.38;;
68806;SDS011;55800;54.272;18.558;2023-06-22T01:01:09;13.82;;;8.88;;
68806;SDS011;55800;54.272;18.558;2023-06-22T01:03:38;11.70;;;6.55;;
68806;SDS011;55800;54.272;18.558;2023-06-22T01:06:08;15.02;;;6.90;;
68806;SDS011;55800;54.272;18.558;2023-06-22T01:08:46;14.05;;;6.50;;
68806;SDS011;55800;54.272;18.558;2023-06-22T01:11:23;11.05;;;7.55;;
68806;SDS011;55800;54.272;18.558;2023-06-22T01:14:02;11.43;;;7.40;;
68806;SDS011;55800;54.272;18.558;2023-06-22T01:16:35;10.77;;;7.03;;
68806;SDS011;55800;54.272;18.558;2023-06-22T01:19:10;13.75;;;7.40;;
68806;SDS011;55800;54.272;18.558;2023-06-22T01:21:50;10.52;;;7.03;;
68806;SDS011;55800;54.272;18.558;2023-06-22T01:24:23;10.40;;;6.57;;
68806;SDS011;55800;54.272;18.558;2023-06-22T01:27:00;14.43;;;8.25;;
68806;SDS011;55800;54.272;18.558;2023-06-22T01:29:45;12.20;;;5.57;;
68806;SDS011;55800;54.272;18.558;2023-06-22T01:32:16;13.07;;;7.97;;
68806;SDS011;55800;54.272;18.558;2023-06-22T01:34:46;13.05;;;7.05;;
68806;SDS011;55800;54.272;18.558;2023-06-22T01:37:17;12.27;;;7.65;;
68806;SDS011;55800;54.272;18.558;2023-06-22T01:39:50;10.55;;;7.35;;
68806;SDS011;55800;54.272;18.558;2023-06-22T01:42:22;18.02;;;8.65;;
68806;SDS011;55800;54.272;18.558;2023-06-22T01:44:54;12.55;;;7.50;;
68806;SDS011;55800;54.272;18.558;2023-06-22T01:47:25;17.27;;;8.90;;
68806;SDS011;55800;54.272;18.558;2023-06-22T01:49:55;9.65;;;5.07;;
68806;SDS011;55800;54.272;18.558;2023-06-22T01:52:25;15.93;;;7.60;;
68806;SDS011;55800;54.272;18.558;2023-06-22T01:54:55;12.88;;;7.80;;
68806;SDS011;55800;54.272;18.558;2023-06-22T01:57:26;16.55;;;8.48;;
68806;SDS011;55800;54.272;18.558;2023-06-22T01:59:59;17.50;;;8.13;;
68806;SDS011;55800;54.272;18.558;2023-06-22T02:02:42;15.48;;;10.45;;
68806;SDS011;55800;54.272;18.558;2023-06-22T02:05:17;12.65;;;5.85;;
68806;SDS011;55800;54.272;18.558;2023-06-22T02:07:49;16.95;;;8.80;;
68806;SDS011;55800;54.272;18.558;2023-06-22T02:10:23;16.02;;;9.32;;
68806;SDS011;55800;54.272;18.558;2023-06-22T02:12:57;16.35;;;9.02;;
68806;SDS011;55800;54.272;18.558;2023-06-22T02:15:28;20.02;;;9.70;;
68806;SDS011;55800;54.272;18.558;2023-06-22T02:17:59;14.35;;;9.60;;
68806;SDS011;55800;54.272;18.558;2023-06-22T02:20:29;17.48;;;7.95;;
68806;SDS011;55800;54.272;18.558;2023-06-22T02:22:58;16.25;;;8.10;;
68806;SDS011;55800;54.272;18.558;2023-06-22T02:25:27;14.93;;;9.35;;
68806;SDS011;55800;54.272;18.558;2023-06-22T02:27:57;15.02;;;9.20;;
68806;SDS011;55800;54.272;18.558;2023-06-22T02:33:46;19.63;;;10.18;;
68806;SDS011;55800;54.272;18.558;2023-06-22T02:36:18;16.67;;;9.35;;
68806;SDS011;55800;54.272;18.558;2023-06-22T02:38:52;15.30;;;9.13;;
68806;SDS011;55800;54.272;18.558;2023-06-22T02:41:23;14.43;;;9.90;;
68806;SDS011;55800;54.272;18.558;2023-06-22T02:43:52;18.80;;;11.20;;
68806;SDS011;55800;54.272;18.558;2023-06-22T02:48:53;17.00;;;10.57;;
68806;SDS011;55800;54.272;18.558;2023-06-22T02:51:22;18.55;;;10.80;;
68806;SDS011;55800;54.272;18.558;2023-06-22T02:53:52;17.00;;;11.52;;
68806;SDS011;55800;54.272;18.558;2023-06-22T02:56:28;19.65;;;10.52;;
68806;SDS011;55800;54.272;18.558;2023-06-22T02:59:00;24.25;;;12.15;;
68806;SDS011;55800;54.272;18.558;2023-06-22T03:01:35;20.77;;;12.68;;
68806;SDS011;55800;54.272;18.558;2023-06-22T03:04:22;20.92;;;12.68;;
68806;SDS011;55800;54.272;18.558;2023-06-22T03:06:52;19.63;;;12.15;;
68806;SDS011;55800;54.272;18.558;2023-06-22T03:09:21;23.50;;;12.60;;
68806;SDS011;55800;54.272;18.558;2023-06-22T03:11:50;17.75;;;12.43;;
68806;SDS011;55800;54.272;18.558;2023-06-22T03:14:20;23.48;;;12.25;;
68806;SDS011;55800;54.272;18.558;2023-06-22T03:16:51;21.90;;;12.23;;
68806;SDS011;55800;54.272;18.558;2023-06-22T03:19:21;18.30;;;12.60;;
68806;SDS011;55800;54.272;18.558;2023-06-22T03:21:51;17.10;;;10.65;;
68806;SDS011;55800;54.272;18.558;2023-06-22T03:24:20;18.17;;;10.52;;
68806;SDS011;55800;54.272;18.558;2023-06-22T03:26:50;19.38;;;11.27;;
68806;SDS011;55800;54.272;18.558;2023-06-22T03:29:19;13.52;;;7.45;;
68806;SDS011;55800;54.272;18.558;2023-06-22T03:31:49;20.58;;;12.93;;
68806;SDS011;55800;54.272;18.558;2023-06-22T03:34:18;18.35;;;11.98;;
68806;SDS011;55800;54.272;18.558;2023-06-22T03:36:52;19.02;;;11.98;;
68806;SDS011;55800;54.272;18.558;2023-06-22T03:39:22;17.08;;;10.93;;
68806;SDS011;55800;54.272;18.558;2023-06-22T03:41:52;14.88;;;10.63;;
68806;SDS011;55800;54.272;18.558;2023-06-22T03:44:21;16.98;;;10.77;;
68806;SDS011;55800;54.272;18.558;2023-06-22T03:46:50;13.82;;;8.93;;
68806;SDS011;55800;54.272;18.558;2023-06-22T03:49:20;14.77;;;7.53;;
68806;SDS011;55800;54.272;18.558;2023-06-22T03:54:19;18.27;;;11.15;;
68806;SDS011;55800;54.272;18.558;2023-06-22T03:59:18;15.80;;;10.23;;
68806;SDS011;55800;54.272;18.558;2023-06-22T04:04:16;15.40;;;10.30;;
68806;SDS011;55800;54.272;18.558;2023-06-22T04:06:46;20.90;;;10.63;;
68806;SDS011;55800;54.272;18.558;2023-06-22T04:09:16;14.73;;;9.13;;
68806;SDS011;55800;54.272;18.558;2023-06-22T04:11:46;15.95;;;9.02;;
68806;SDS011;55800;54.272;18.558;2023-06-22T04:14:15;17.15;;;9.20;;
68806;SDS011;55800;54.272;18.558;2023-06-22T04:16:44;14.07;;;9.30;;
68806;SDS011;55800;54.272;18.558;2023-06-22T04:19:15;13.43;;;9.70;;
68806;SDS011;55800;54.272;18.558;2023-06-22T04:21:44;14.02;;;10.32;;
68806;SDS011;55800;54.272;18.558;2023-06-22T04:24:17;14.68;;;10.13;;
68806;SDS011;55800;54.272;18.558;2023-06-22T04:26:46;19.70;;;9.73;;
68806;SDS011;55800;54.272;18.558;2023-06-22T04:29:15;18.98;;;7.78;;
68806;SDS011;55800;54.272;18.558;2023-06-22T04:31:44;19.05;;;9.48;;
68806;SDS011;55800;54.272;18.558;2023-06-22T04:34:18;16.80;;;9.02;;
68806;SDS011;55800;54.272;18.558;2023-06-22T04:39:17;17.98;;;10.45;;
68806;SDS011;55800;54.272;18.558;2023-06-22T04:41:46;15.23;;;8.80;;
68806;SDS011;55800;54.272;18.558;2023-06-22T04:44:16;15.40;;;8.55;;
68806;SDS011;55800;54.272;18.558;2023-06-22T04:46:51;15.65;;;9.48;;
68806;SDS011;55800;54.272;18.558;2023-06-22T04:49:27;14.10;;;8.88;;
68806;SDS011;55800;54.272;18.558;2023-06-22T04:51:59;15.07;;;7.60;;
68806;SDS011;55800;54.272;18.558;2023-06-22T04:54:31;14.15;;;8.52;;
68806;SDS011;55800;54.272;18.558;2023-06-22T04:57:01;13.05;;;8.38;;
68806;SDS011;55800;54.272;18.558;2023-06-22T04:59:32;12.82;;;7.97;;
68806;SDS011;55800;54.272;18.558;2023-06-22T05:02:02;15.77;;;8.43;;
68806;SDS011;55800;54.272;18.558;2023-06-22T05:04:32;15.90;;;8.43;;
68806;SDS011;55800;54.272;18.558;2023-06-22T05:07:03;16.85;;;7.63;;
68806;SDS011;55800;54.272;18.558;2023-06-22T05:09:34;17.67;;;9.18;;
68806;SDS011;55800;54.272;18.558;2023-06-22T05:12:03;13.57;;;7.57;;
68806;SDS011;55800;54.272;18.558;2023-06-22T05:14:37;16.38;;;7.97;;
68806;SDS011;55800;54.272;18.558;2023-06-22T05:17:06;15.23;;;7.78;;
68806;SDS011;55800;54.272;18.558;2023-06-22T05:19:42;19.38;;;7.50;;
68806;SDS011;55800;54.272;18.558;2023-06-22T05:22:15;10.27;;;7.25;;
68806;SDS011;55800;54.272;18.558;2023-06-22T05:24:46;15.65;;;6.78;;
68806;SDS011;55800;54.272;18.558;2023-06-22T05:27:15;10.05;;;6.75;;
68806;SDS011;55800;54.272;18.558;2023-06-22T05:29:45;9.15;;;4.82;;
68806;SDS011;55800;54.272;18.558;2023-06-22T05:32:14;13.55;;;7.03;;
68806;SDS011;55800;54.272;18.558;2023-06-22T05:34:43;10.00;;;6.47;;
68806;SDS011;55800;54.272;18.558;2023-06-22T05:37:13;10.00;;;6.25;;
68806;SDS011;55800;54.272;18.558;2023-06-22T05:39:42;18.67;;;6.90;;
68806;SDS011;55800;54.272;18.558;2023-06-22T05:42:13;13.00;;;6.70;;
68806;SDS011;55800;54.272;18.558;2023-06-22T05:44:42;9.85;;;6.55;;
68806;SDS011;55800;54.272;18.558;2023-06-22T05:47:11;13.90;;;7.68;;
68806;SDS011;55800;54.272;18.558;2023-06-22T05:49:41;11.10;;;6.78;;
68806;SDS011;55800;54.272;18.558;2023-06-22T05:52:10;13.88;;;6.07;;
68806;SDS011;55800;54.272;18.558;2023-06-22T05:54:39;9.35;;;5.65;;
68806;SDS011;55800;54.272;18.558;2023-06-22T05:57:09;10.43;;;5.70;;
68806;SDS011;55800;54.272;18.558;2023-06-22T05:59:40;10.68;;;5.18;;
68806;SDS011;55800;54.272;18.558;2023-06-22T06:02:09;10.90;;;5.55;;
68806;SDS011;55800;54.272;18.558;2023-06-22T06:04:39;10.27;;;4.85;;
68806;SDS011;55800;54.272;18.558;2023-06-22T06:07:08;12.98;;;4.00;;
68806;SDS011;55800;54.272;18.558;2023-06-22T06:09:38;7.30;;;4.80;;
68806;SDS011;55800;54.272;18.558;2023-06-22T06:12:07;10.25;;;5.70;;
68806;SDS011;55800;54.272;18.558;2023-06-22T06:14:37;9.35;;;4.68;;
68806;SDS011;55800;54.272;18.558;2023-06-22T06:17:07;11.07;;;5.00;;
68806;SDS011;55800;54.272;18.558;2023-06-22T06:19:37;9.00;;;5.65;;
68806;SDS011;55800;54.272;18.558;2023-06-22T06:22:06;10.23;;;4.55;;
68806;SDS011;55800;54.272;18.558;2023-06-22T06:24:35;11.60;;;5.30;;
68806;SDS011;55800;54.272;18.558;2023-06-22T06:27:04;10.98;;;4.95;;
68806;SDS011;55800;54.272;18.558;2023-06-22T06:29:35;8.25;;;4.90;;
68806;SDS011;55800;54.272;18.558;2023-06-22T06:32:04;7.07;;;5.15;;
68806;SDS011;55800;54.272;18.558;2023-06-22T06:34:35;18.55;;;5.28;;
68806;SDS011;55800;54.272;18.558;2023-06-22T06:37:05;8.30;;;4.03;;
68806;SDS011;55800;54.272;18.558;2023-06-22T06:39:34;14.48;;;5.82;;
68806;SDS011;55800;54.272;18.558;2023-06-22T06:42:04;5.82;;;3.58;;
68806;SDS011;55800;54.272;18.558;2023-06-22T06:44:34;7.15;;;4.22;;
68806;SDS011;55800;54.272;18.558;2023-06-22T06:47:04;9.40;;;3.78;;
68806;SDS011;55800;54.272;18.558;2023-06-22T06:49:35;10.40;;;3.97;;
68806;SDS011;55800;54.272;18.558;2023-06-22T06:52:05;10.07;;;3.88;;
68806;SDS011;55800;54.272;18.558;2023-06-22T06:54:35;8.27;;;3.92;;
68806;SDS011;55800;54.272;18.558;2023-06-22T06:57:04;4.82;;;3.10;;
68806;SDS011;55800;54.272;18.558;2023-06-22T06:59:34;10.68;;;3.28;;
68806;SDS011;55800;54.272;18.558;2023-06-22T07:02:03;10.90;;;3.95;;
68806;SDS011;55800;54.272;18.558;2023-06-22T07:04:32;4.05;;;2.63;;
68806;SDS011;55800;54.272;18.558;2023-06-22T07:07:03;4.97;;;2.95;;
68806;SDS011;55800;54.272;18.558;2023-06-22T07:09:33;8.63;;;3.30;;
68806;SDS011;55800;54.272;18.558;2023-06-22T07:12:02;6.40;;;3.10;;
68806;SDS011;55800;54.272;18.558;2023-06-22T07:14:32;9.52;;;4.28;;
68806;SDS011;55800;54.272;18.558;2023-06-22T07:17:01;6.57;;;3.83;;
68806;SDS011;55800;54.272;18.558;2023-06-22T07:19:32;8.38;;;3.58;;
68806;SDS011;55800;54.272;18.558;2023-06-22T07:22:03;7.63;;;3.88;;
68806;SDS011;55800;54.272;18.558;2023-06-22T07:24:33;7.97;;;4.03;;
68806;SDS011;55800;54.272;18.558;2023-06-22T07:27:02;8.77;;;3.78;;
68806;SDS011;55800;54.272;18.558;2023-06-22T07:29:33;6.05;;;3.60;;
68806;SDS011;55800;54.272;18.558;2023-06-22T07:32:03;5.38;;;2.63;;
68806;SDS011;55800;54.272;18.558;2023-06-22T07:34:33;11.05;;;2.72;;
68806;SDS011;55800;54.272;18.558;2023-06-22T07:37:04;9.15;;;3.58;;
68806;SDS011;55800;54.272;18.558;2023-06-22T07:39:33;11.38;;;3.53;;
68806;SDS011;55800;54.272;18.558;2023-06-22T07:42:05;8.20;;;3.40;;
68806;SDS011;55800;54.272;18.558;2023-06-22T07:44:34;6.10;;;2.72;;
68806;SDS011;55800;54.272;18.558;2023-06-22T07:47:03;7.30;;;3.28;;
68806;SDS011;55800;54.272;18.558;2023-06-22T07:49:33;13.25;;;3.90;;
68806;SDS011;55800;54.272;18.558;2023-06-22T07:52:04;8.43;;;3.92;;
68806;SDS011;55800;54.272;18.558;2023-06-22T07:54:34;9.45;;;3.92;;
68806;SDS011;55800;54.272;18.558;2023-06-22T07:57:04;10.75;;;4.45;;
68806;SDS011;55800;54.272;18.558;2023-06-22T07:59:33;4.90;;;2.92;;
68806;SDS011;55800;54.272;18.558;2023-06-22T08:02:03;8.13;;;2.95;;
68806;SDS011;55800;54.272;18.558;2023-06-22T08:04:33;7.72;;;4.63;;
68806;SDS011;55800;54.272;18.558;2023-06-22T08:07:04;2.03;;;1.80;;
68806;SDS011;55800;54.272;18.558;2023-06-22T08:09:34;6.78;;;2.63;;
68806;SDS011;55800;54.272;18.558;2023-06-22T08:12:03;11.25;;;4.00;;
68806;SDS011;55800;54.272;18.558;2023-06-22T08:14:35;8.10;;;3.70;;
68806;SDS011;55800;54.272;18.558;2023-06-22T08:17:08;7.88;;;2.80;;
68806;SDS011;55800;54.272;18.558;2023-06-22T08:19:37;10.05;;;3.67;;
68806;SDS011;55800;54.272;18.558;2023-06-22T08:22:09;6.38;;;2.97;;
68806;SDS011;55800;54.272;18.558;2023-06-22T08:24:38;6.00;;;2.65;;
68806;SDS011;55800;54.272;18.558;2023-06-22T08:27:07;7.72;;;4.07;;
68806;SDS011;55800;54.272;18.558;2023-06-22T08:29:39;5.60;;;2.65;;
68806;SDS011;55800;54.272;18.558;2023-06-22T08:32:09;5.10;;;2.42;;
68806;SDS011;55800;54.272;18.558;2023-06-22T08:34:38;9.63;;;3.25;;
68806;SDS011;55800;54.272;18.558;2023-06-22T08:37:10;6.53;;;3.90;;
68806;SDS011;55800;54.272;18.558;2023-06-22T08:39:40;7.95;;;3.92;;
68806;SDS011;55800;54.272;18.558;2023-06-22T08:42:09;6.22;;;2.50;;
68806;SDS011;55800;54.272;18.558;2023-06-22T08:44:39;8.27;;;3.03;;
68806;SDS011;55800;54.272;18.558;2023-06-22T08:47:08;5.20;;;2.22;;
68806;SDS011;55800;54.272;18.558;2023-06-22T08:49:37;5.43;;;2.58;;
68806;SDS011;55800;54.272;18.558;2023-06-22T08:52:06;5.93;;;1.90;;
68806;SDS011;55800;54.272;18.558;2023-06-22T08:54:37;5.38;;;2.58;;
68806;SDS011;55800;54.272;18.558;2023-06-22T08:57:07;7.18;;;2.90;;
68806;SDS011;55800;54.272;18.558;2023-06-22T08:59:36;5.90;;;2.53;;
68806;SDS011;55800;54.272;18.558;2023-06-22T09:02:05;5.82;;;2.78;;
68806;SDS011;55800;54.272;18.558;2023-06-22T09:04:35;9.60;;;3.33;;
68806;SDS011;55800;54.272;18.558;2023-06-22T09:07:05;5.63;;;2.53;;
68806;SDS011;55800;54.272;18.558;2023-06-22T09:09:35;5.75;;;2.80;;
68806;SDS011;55800;54.272;18.558;2023-06-22T09:12:06;7.75;;;2.33;;
68806;SDS011;55800;54.272;18.558;2023-06-22T09:14:36;8.07;;;3.38;;
68806;SDS011;55800;54.272;18.558;2023-06-22T09:17:05;7.00;;;2.45;;
68806;SDS011;55800;54.272;18.558;2023-06-22T09:19:35;12.88;;;3.55;;
68806;SDS011;55800;54.272;18.558;2023-06-22T09:22:05;7.07;;;1.98;;
68806;SDS011;55800;54.272;18.558;2023-06-22T09:24:34;5.72;;;2.42;;
68806;SDS011;55800;54.272;18.558;2023-06-22T09:27:05;9.48;;;2.53;;
68806;SDS011;55800;54.272;18.558;2023-06-22T09:29:35;7.25;;;2.60;;
68806;SDS011;55800;54.272;18.558;2023-06-22T09:32:04;7.55;;;2.30;;
68806;SDS011;55800;54.272;18.558;2023-06-22T09:34:34;7.68;;;2.08;;
68806;SDS011;55800;54.272;18.558;2023-06-22T09:37:05;6.63;;;2.70;;
68806;SDS011;55800;54.272;18.558;2023-06-22T09:39:34;5.53;;;3.30;;
68806;SDS011;55800;54.272;18.558;2023-06-22T09:42:06;6.97;;;2.55;;
68806;SDS011;55800;54.272;18.558;2023-06-22T09:44:35;5.40;;;2.35;;
68806;SDS011;55800;54.272;18.558;2023-06-22T09:47:05;7.53;;;2.33;;
68806;SDS011;55800;54.272;18.558;2023-06-22T09:49:35;6.07;;;2.25;;
68806;SDS011;55800;54.272;18.558;2023-06-22T09:52:14;6.25;;;2.05;;
68806;SDS011;55800;54.272;18.558;2023-06-22T09:54:44;7.43;;;2.00;;
68806;SDS011;55800;54.272;18.558;2023-06-22T09:57:14;6.68;;;2.40;;
68806;SDS011;55800;54.272;18.558;2023-06-22T09:59:44;3.83;;;1.92;;
68806;SDS011;55800;54.272;18.558;2023-06-22T10:02:16;9.18;;;1.92;;
68806;SDS011;55800;54.272;18.558;2023-06-22T10:04:46;4.65;;;2.22;;
68806;SDS011;55800;54.272;18.558;2023-06-22T10:07:15;8.00;;;2.20;;
68806;SDS011;55800;54.272;18.558;2023-06-22T10:09:45;8.80;;;2.08;;
68806;SDS011;55800;54.272;18.558;2023-06-22T10:12:16;3.67;;;1.55;;
68806;SDS011;55800;54.272;18.558;2023-06-22T10:14:45;9.68;;;2.40;;
68806;SDS011;55800;54.272;18.558;2023-06-22T10:17:15;8.35;;;2.72;;
68806;SDS011;55800;54.272;18.558;2023-06-22T10:19:44;3.95;;;1.98;;
68806;SDS011;55800;54.272;18.558;2023-06-22T10:22:14;5.03;;;2.15;;
68806;SDS011;55800;54.272;18.558;2023-06-22T10:24:44;5.13;;;2.97;;
68806;SDS011;55800;54.272;18.558;2023-06-22T10:27:15;4.15;;;2.65;;
68806;SDS011;55800;54.272;18.558;2023-06-22T10:29:45;7.75;;;3.05;;
68806;SDS011;55800;54.272;18.558;2023-06-22T10:32:14;7.47;;;1.95;;
68806;SDS011;55800;54.272;18.558;2023-06-22T10:34:43;17.58;;;2.53;;
68806;SDS011;55800;54.272;18.558;2023-06-22T10:37:12;5.45;;;1.42;;
68806;SDS011;55800;54.272;18.558;2023-06-22T10:39:42;16.88;;;3.20;;
68806;SDS011;55800;54.272;18.558;2023-06-22T10:42:11;7.55;;;2.20;;
68806;SDS011;55800;54.272;18.558;2023-06-22T10:44:42;4.10;;;1.92;;
68806;SDS011;55800;54.272;18.558;2023-06-22T10:47:11;9.13;;;3.40;;
68806;SDS011;55800;54.272;18.558;2023-06-22T10:49:41;5.53;;;2.53;;
68806;SDS011;55800;54.272;18.558;2023-06-22T10:52:10;7.55;;;1.98;;
68806;SDS011;55800;54.272;18.558;2023-06-22T10:54:41;8.32;;;2.30;;
68806;SDS011;55800;54.272;18.558;2023-06-22T10:57:10;5.03;;;2.33;;
68806;SDS011;55800;54.272;18.558;2023-06-22T10:59:39;6.90;;;2.50;;
68806;SDS011;55800;54.272;18.558;2023-06-22T11:02:10;4.40;;;2.38;;
68806;SDS011;55800;54.272;18.558;2023-06-22T11:04:39;2.95;;;1.60;;
68806;SDS011;55800;54.272;18.558;2023-06-22T11:07:09;5.53;;;2.42;;
68806;SDS011;55800;54.272;18.558;2023-06-22T11:09:38;6.07;;;3.10;;
68806;SDS011;55800;54.272;18.558;2023-06-22T11:12:07;4.55;;;2.47;;
68806;SDS011;55800;54.272;18.558;2023-06-22T11:14:37;1.65;;;1.00;;
68806;SDS011;55800;54.272;18.558;2023-06-22T11:17:08;4.03;;;1.98;;
68806;SDS011;55800;54.272;18.558;2023-06-22T11:19:38;5.03;;;2.17;;
68806;SDS011;55800;54.272;18.558;2023-06-22T11:22:09;6.10;;;2.63;;
68806;SDS011;55800;54.272;18.558;2023-06-22T11:24:39;6.43;;;2.20;;
68806;SDS011;55800;54.272;18.558;2023-06-22T11:27:08;6.88;;;2.10;;
68806;SDS011;55800;54.272;18.558;2023-06-22T11:29:37;6.53;;;2.20;;
68806;SDS011;55800;54.272;18.558;2023-06-22T11:32:08;6.93;;;2.60;;
68806;SDS011;55800;54.272;18.558;2023-06-22T11:34:41;4.97;;;2.42;;
68806;SDS011;55800;54.272;18.558;2023-06-22T11:37:10;4.13;;;2.20;;
68806;SDS011;55800;54.272;18.558;2023-06-22T11:39:40;7.68;;;2.13;;
68806;SDS011;55800;54.272;18.558;2023-06-22T11:42:13;5.15;;;2.15;;
68806;SDS011;55800;54.272;18.558;2023-06-22T11:44:42;6.85;;;2.33;;
68806;SDS011;55800;54.272;18.558;2023-06-22T11:47:13;6.35;;;2.38;;
68806;SDS011;55800;54.272;18.558;2023-06-22T11:49:42;5.72;;;2.13;;
68806;SDS011;55800;54.272;18.558;2023-06-22T11:52:12;3.95;;;1.63;;
68806;SDS011;55800;54.272;18.558;2023-06-22T11:54:41;3.72;;;1.75;;
68806;SDS011;55800;54.272;18.558;2023-06-22T11:57:10;6.82;;;1.77;;
68806;SDS011;55800;54.272;18.558;2023-06-22T11:59:40;4.43;;;1.65;;
68806;SDS011;55800;54.272;18.558;2023-06-22T12:02:09;6.95;;;2.17;;
68806;SDS011;55800;54.272;18.558;2023-06-22T12:04:39;4.65;;;1.60;;
68806;SDS011;55800;54.272;18.558;2023-06-22T12:07:08;4.88;;;1.70;;
68806;SDS011;55800;54.272;18.558;2023-06-22T12:09:38;5.38;;;1.60;;
68806;SDS011;55800;54.272;18.558;2023-06-22T12:12:08;4.47;;;2.10;;
68806;SDS011;55800;54.272;18.558;2023-06-22T12:14:37;13.73;;;3.08;;
68806;SDS011;55800;54.272;18.558;2023-06-22T12:17:06;3.78;;;1.50;;
68806;SDS011;55800;54.272;18.558;2023-06-22T12:19:36;3.70;;;1.50;;
68806;SDS011;55800;54.272;18.558;2023-06-22T12:22:06;6.03;;;2.30;;
68806;SDS011;55800;54.272;18.558;2023-06-22T12:24:36;4.55;;;1.95;;
68806;SDS011;55800;54.272;18.558;2023-06-22T12:27:05;5.95;;;1.98;;
68806;SDS011;55800;54.272;18.558;2023-06-22T12:29:34;3.85;;;1.65;;
68806;SDS011;55800;54.272;18.558;2023-06-22T12:32:04;4.15;;;2.00;;
68806;SDS011;55800;54.272;18.558;2023-06-22T12:34:34;4.85;;;1.85;;
68806;SDS011;55800;54.272;18.558;2023-06-22T12:37:03;5.00;;;1.58;;
68806;SDS011;55800;54.272;18.558;2023-06-22T12:39:34;3.63;;;1.60;;
68806;SDS011;55800;54.272;18.558;2023-06-22T12:42:04;3.38;;;1.63;;
68806;SDS011;55800;54.272;18.558;2023-06-22T12:44:37;4.82;;;1.92;;
68806;SDS011;55800;54.272;18.558;2023-06-22T12:47:07;5.15;;;1.92;;
68806;SDS011;55800;54.272;18.558;2023-06-22T12:49:37;16.35;;;2.97;;
68806;SDS011;55800;54.272;18.558;2023-06-22T12:52:09;6.63;;;2.75;;
68806;SDS011;55800;54.272;18.558;2023-06-22T12:54:40;3.38;;;2.08;;
68806;SDS011;55800;54.272;18.558;2023-06-22T12:57:21;5.40;;;2.10;;
68806;SDS011;55800;54.272;18.558;2023-06-22T12:59:50;9.18;;;2.72;;
68806;SDS011;55800;54.272;18.558;2023-06-22T13:02:20;7.00;;;2.28;;
68806;SDS011;55800;54.272;18.558;2023-06-22T13:04:49;10.90;;;2.20;;
68806;SDS011;55800;54.272;18.558;2023-06-22T13:07:18;5.35;;;1.85;;
68806;SDS011;55800;54.272;18.558;2023-06-22T13:09:51;4.60;;;1.70;;
68806;SDS011;55800;54.272;18.558;2023-06-22T13:12:20;4.03;;;1.85;;
68806;SDS011;55800;54.272;18.558;2023-06-22T13:14:50;4.30;;;1.70;;
68806;SDS011;55800;54.272;18.558;2023-06-22T13:17:19;8.68;;;2.70;;
68806;SDS011;55800;54.272;18.558;2023-06-22T13:19:49;4.35;;;1.85;;
68806;SDS011;55800;54.272;18.558;2023-06-22T13:22:25;8.10;;;1.80;;
68806;SDS011;55800;54.272;18.558;2023-06-22T13:24:58;8.25;;;3.08;;
68806;SDS011;55800;54.272;18.558;2023-06-22T13:27:31;10.43;;;2.85;;
68806;SDS011;55800;54.272;18.558;2023-06-22T13:30:00;4.22;;;2.10;;
68806;SDS011;55800;54.272;18.558;2023-06-22T13:32:30;5.00;;;1.90;;
68806;SDS011;55800;54.272;18.558;2023-06-22T13:35:00;4.85;;;1.80;;
68806;SDS011;55800;54.272;18.558;2023-06-22T13:37:30;6.28;;;2.65;;
68806;SDS011;55800;54.272;18.558;2023-06-22T13:40:01;9.95;;;3.90;;
68806;SDS011;55800;54.272;18.558;2023-06-22T13:42:33;9.73;;;2.92;;
68806;SDS011;55800;54.272;18.558;2023-06-22T13:45:03;17.20;;;3.33;;
68806;SDS011;55800;54.272;18.558;2023-06-22T13:47:32;7.78;;;2.88;;
68806;SDS011;55800;54.272;18.558;2023-06-22T13:50:02;7.85;;;2.85;;
68806;SDS011;55800;54.272;18.558;2023-06-22T13:52:32;7.10;;;3.10;;
68806;SDS011;55800;54.272;18.558;2023-06-22T13:55:03;5.95;;;3.08;;
68806;SDS011;55800;54.272;18.558;2023-06-22T13:57:33;7.05;;;3.00;;
68806;SDS011;55800;54.272;18.558;2023-06-22T14:00:03;5.95;;;3.13;;
68806;SDS011;55800;54.272;18.558;2023-06-22T14:02:37;8.05;;;2.90;;
68806;SDS011;55800;54.272;18.558;2023-06-22T14:05:08;7.10;;;3.22;;
68806;SDS011;55800;54.272;18.558;2023-06-22T14:07:37;9.07;;;2.70;;
68806;SDS011;55800;54.272;18.558;2023-06-22T14:10:09;5.00;;;2.83;;
68806;SDS011;55800;54.272;18.558;2023-06-22T14:12:38;7.00;;;3.00;;
68806;SDS011;55800;54.272;18.558;2023-06-22T14:15:07;6.57;;;2.78;;
68806;SDS011;55800;54.272;18.558;2023-06-22T14:17:37;8.60;;;3.00;;
68806;SDS011;55800;54.272;18.558;2023-06-22T14:20:07;8.25;;;2.85;;
68806;SDS011;55800;54.272;18.558;2023-06-22T14:22:36;6.55;;;2.50;;
68806;SDS011;55800;54.272;18.558;2023-06-22T14:25:07;9.90;;;2.67;;
68806;SDS011;55800;54.272;18.558;2023-06-22T14:27:37;7.15;;;2.15;;
68806;SDS011;55800;54.272;18.558;2023-06-22T14:30:07;8.45;;;2.97;;
68806;SDS011;55800;54.272;18.558;2023-06-22T14:32:36;7.20;;;2.55;;
68806;SDS011;55800;54.272;18.558;2023-06-22T14:35:06;24.52;;;4.88;;
68806;SDS011;55800;54.272;18.558;2023-06-22T14:37:35;5.68;;;1.92;;
68806;SDS011;55800;54.272;18.558;2023-06-22T14:40:05;6.07;;;2.35;;
68806;SDS011;55800;54.272;18.558;2023-06-22T14:42:36;8.90;;;2.20;;
68806;SDS011;55800;54.272;18.558;2023-06-22T14:45:06;5.75;;;2.20;;
68806;SDS011;55800;54.272;18.558;2023-06-22T14:47:35;7.78;;;3.20;;
68806;SDS011;55800;54.272;18.558;2023-06-22T14:50:05;5.28;;;2.20;;
68806;SDS011;55800;54.272;18.558;2023-06-22T14:52:35;8.50;;;2.30;;
68806;SDS011;55800;54.272;18.558;2023-06-22T14:55:05;3.75;;;1.88;;
68806;SDS011;55800;54.272;18.558;2023-06-22T14:57:36;4.75;;;2.67;;
68806;SDS011;55800;54.272;18.558;2023-06-22T15:00:06;4.40;;;2.08;;
68806;SDS011;55800;54.272;18.558;2023-06-22T15:02:37;3.83;;;2.03;;